createdAt,value
2017-12-13T00:01:53.745Z,2.53
2017-12-13T00:04:23.251Z,3.00
2017-12-13T00:06:51.880Z,4.45
2017-12-13T00:09:20.513Z,1.85
2017-12-13T00:11:49.159Z,2.33
2017-12-13T00:14:17.537Z,3.10
2017-12-13T00:16:45.710Z,3.00
2017-12-13T00:19:14.089Z,2.80
2017-12-13T00:21:42.452Z,3.60
2017-12-13T00:24:10.815Z,2.03
2017-12-13T00:26:39.949Z,2.67
2017-12-13T00:29:08.422Z,2.33
2017-12-13T00:31:37.047Z,2.40
2017-12-13T00:34:06.221Z,4.77
2017-12-13T00:36:34.580Z,3.53
2017-12-13T00:39:02.955Z,1.27
2017-12-13T00:41:32.368Z,2.05
2017-12-13T00:44:00.747Z,3.70
2017-12-13T00:46:30.169Z,3.75
2017-12-13T00:49:00.004Z,2.70
2017-12-13T00:51:28.357Z,4.33
2017-12-13T00:53:56.712Z,1.47
2017-12-13T00:56:26.161Z,2.65
2017-12-13T00:58:54.808Z,1.67
2017-12-13T01:01:23.180Z,1.03
2017-12-13T01:03:52.604Z,2.55
2017-12-13T01:06:21.240Z,4.72
2017-12-13T01:08:49.891Z,1.40
2017-12-13T01:11:18.537Z,3.28
2017-12-13T01:13:47.936Z,3.62
2017-12-13T01:16:17.340Z,4.00
2017-12-13T01:18:48.091Z,3.60
2017-12-13T01:21:16.722Z,4.93
2017-12-13T01:23:45.344Z,6.10
2017-12-13T01:26:14.752Z,4.25
2017-12-13T01:28:44.148Z,2.45
2017-12-13T01:31:13.541Z,3.10
2017-12-13T01:33:42.185Z,4.25
2017-12-13T01:36:11.384Z,2.47
2017-12-13T01:38:40.017Z,4.47
2017-12-13T01:41:09.433Z,6.55
2017-12-13T01:43:37.794Z,4.50
2017-12-13T01:46:07.181Z,4.57
2017-12-13T01:48:35.831Z,4.20
2017-12-13T01:51:04.957Z,3.50
2017-12-13T01:53:33.580Z,3.90
2017-12-13T01:56:02.228Z,5.60
2017-12-13T01:58:30.592Z,1.80
2017-12-13T02:00:58.547Z,4.15
2017-12-13T02:03:27.704Z,3.20
2017-12-13T02:05:56.327Z,4.50
2017-12-13T02:08:24.626Z,2.67
2017-12-13T02:10:53.271Z,4.10
2017-12-13T02:13:22.403Z,3.60
2017-12-13T02:15:51.797Z,4.18
2017-12-13T02:18:21.588Z,3.75
2017-12-13T02:20:49.545Z,4.55
2017-12-13T02:23:17.249Z,3.80
2017-12-13T02:25:45.893Z,3.70
2017-12-13T02:28:14.300Z,3.10
2017-12-13T02:30:42.664Z,3.07
2017-12-13T02:33:12.207Z,2.77
2017-12-13T02:35:41.616Z,3.60
2017-12-13T02:38:09.658Z,3.47
2017-12-13T02:40:49.179Z,4.70
2017-12-13T02:43:17.820Z,5.10
2017-12-13T02:45:46.208Z,3.33
2017-12-13T02:48:14.607Z,1.37
2017-12-13T02:50:42.967Z,3.70
2017-12-13T02:53:11.342Z,2.63
2017-12-13T02:55:39.332Z,3.20
2017-12-13T02:58:07.313Z,2.90
2017-12-13T03:00:36.126Z,1.23
2017-12-13T03:03:04.623Z,4.70
2017-12-13T03:05:34.030Z,2.67
2017-12-13T03:08:02.397Z,2.83
2017-12-13T03:10:30.772Z,2.10
2017-12-13T03:12:59.131Z,3.63
2017-12-13T03:15:28.254Z,3.10
2017-12-13T03:17:56.628Z,2.30
2017-12-13T03:20:24.719Z,2.73
2017-12-13T03:22:56.462Z,3.20
2017-12-13T03:25:24.512Z,3.27
2017-12-13T03:27:55.644Z,3.57
2017-12-13T03:30:24.473Z,1.93
2017-12-13T03:32:52.841Z,4.20
2017-12-13T03:35:22.371Z,3.70
2017-12-13T03:37:52.676Z,4.20
2017-12-13T03:40:21.036Z,3.47
2017-12-13T03:42:49.528Z,3.20
2017-12-13T03:45:19.029Z,3.50
2017-12-13T03:47:47.395Z,4.47
2017-12-13T03:50:15.775Z,3.37
2017-12-13T03:52:44.130Z,4.53
2017-12-13T03:55:13.260Z,3.30
2017-12-13T03:57:43.902Z,2.83
2017-12-13T04:00:11.592Z,5.00
2017-12-13T04:02:39.960Z,1.53
2017-12-13T04:05:08.368Z,5.60
2017-12-13T04:07:38.466Z,4.97
2017-12-13T04:10:06.847Z,4.60
2017-12-13T04:12:35.235Z,3.40
2017-12-13T04:15:03.593Z,3.60
2017-12-13T04:17:31.950Z,4.73
2017-12-13T04:20:01.105Z,2.27
2017-12-13T04:22:30.600Z,4.63
2017-12-13T04:24:59.736Z,2.10
2017-12-13T04:27:29.273Z,2.53
2017-12-13T04:29:57.633Z,0.93
2017-12-13T04:32:26.099Z,4.70
2017-12-13T04:34:54.484Z,2.93
2017-12-13T04:37:23.879Z,2.83
2017-12-13T04:39:53.008Z,3.53
2017-12-13T04:42:21.451Z,3.97
2017-12-13T04:44:49.947Z,4.60
2017-12-13T04:47:18.300Z,4.90
2017-12-13T04:49:46.693Z,2.50
2017-12-13T04:52:15.045Z,4.23
2017-12-13T04:54:44.172Z,3.23
2017-12-13T04:57:12.564Z,5.27
2017-12-13T04:59:40.920Z,4.00
2017-12-13T05:02:09.287Z,2.13
2017-12-13T05:04:37.664Z,3.67
2017-12-13T05:07:06.023Z,3.10
2017-12-13T05:09:35.187Z,3.83
2017-12-13T05:12:03.572Z,3.50
2017-12-13T05:14:33.085Z,4.50
2017-12-13T05:17:02.596Z,1.90
2017-12-13T05:19:31.749Z,3.40
2017-12-13T05:21:59.783Z,3.13
2017-12-13T05:24:28.929Z,2.43
2017-12-13T05:26:57.300Z,2.33
2017-12-13T05:29:25.648Z,1.93
2017-12-13T05:31:54.035Z,2.30
2017-12-13T05:34:22.415Z,2.27
2017-12-13T05:36:50.440Z,2.27
2017-12-13T05:39:18.819Z,2.10
2017-12-13T05:41:47.177Z,2.67
2017-12-13T05:44:15.529Z,1.33
2017-12-13T05:46:43.908Z,1.87
2017-12-13T05:49:12.255Z,1.80
2017-12-13T05:51:40.623Z,2.20
2017-12-13T05:54:09.012Z,2.40
2017-12-13T05:56:37.368Z,2.93
2017-12-13T05:59:06.573Z,2.53
2017-12-13T06:01:35.719Z,2.90
2017-12-13T06:04:04.084Z,1.67
2017-12-13T06:06:32.452Z,1.67
2017-12-13T06:09:00.839Z,1.83
2017-12-13T06:11:29.200Z,2.37
2017-12-13T06:13:57.565Z,2.70
2017-12-13T06:16:25.981Z,2.30
2017-12-13T06:18:54.366Z,2.43
2017-12-13T06:21:22.728Z,2.80
2017-12-13T06:23:51.102Z,1.80
2017-12-13T06:26:19.459Z,2.17
2017-12-13T06:28:48.903Z,1.60
2017-12-13T06:31:17.292Z,2.77
2017-12-13T06:33:45.660Z,3.50
2017-12-13T06:36:14.020Z,1.80
2017-12-13T06:38:42.421Z,2.17
2017-12-13T06:41:11.904Z,2.27
2017-12-13T06:43:40.314Z,2.70
2017-12-13T06:46:08.716Z,1.83
2017-12-13T06:48:37.864Z,2.07
2017-12-13T06:51:06.232Z,3.10
2017-12-13T06:53:34.616Z,2.43
2017-12-13T06:56:02.969Z,1.90
2017-12-13T06:58:31.328Z,1.40
2017-12-13T07:01:00.492Z,2.20
2017-12-13T07:03:28.862Z,1.07
2017-12-13T07:05:57.219Z,2.50
2017-12-13T07:08:25.287Z,2.60
2017-12-13T07:10:53.670Z,1.77
2017-12-13T07:13:22.029Z,1.40
2017-12-13T07:15:50.414Z,2.30
2017-12-13T07:18:18.769Z,2.30
2017-12-13T07:20:47.900Z,2.20
2017-12-13T07:23:16.322Z,1.70
2017-12-13T07:25:44.836Z,2.80
2017-12-13T07:28:13.196Z,4.03
2017-12-13T07:30:42.421Z,2.63
2017-12-13T07:33:11.626Z,1.97
2017-12-13T07:35:39.830Z,1.90
2017-12-13T07:38:08.219Z,1.67
2017-12-13T07:40:36.590Z,2.43
2017-12-13T07:43:04.952Z,1.83
2017-12-13T07:45:34.476Z,3.00
2017-12-13T07:48:02.613Z,1.77
2017-12-13T07:50:31.008Z,2.23
2017-12-13T07:52:59.395Z,2.53
2017-12-13T07:55:27.764Z,2.20
2017-12-13T07:57:56.226Z,1.50
2017-12-13T08:00:24.613Z,1.77
2017-12-13T08:02:53.083Z,2.20
2017-12-13T08:05:21.435Z,2.03
2017-12-13T08:07:49.829Z,1.30
2017-12-13T08:10:18.188Z,2.53
2017-12-13T08:12:47.312Z,2.10
2017-12-13T08:15:15.693Z,2.00
2017-12-13T08:17:44.452Z,2.13
2017-12-13T08:20:13.599Z,1.93
2017-12-13T08:22:42.000Z,2.33
2017-12-13T08:25:10.375Z,2.73
2017-12-13T08:27:39.491Z,2.03
2017-12-13T08:30:08.642Z,1.77
2017-12-13T08:32:37.002Z,1.37
2017-12-13T08:35:05.364Z,1.17
2017-12-13T08:37:33.736Z,1.10
2017-12-13T08:40:02.940Z,1.27
2017-12-13T08:42:31.320Z,1.40
2017-12-13T08:44:59.703Z,0.97
2017-12-13T08:47:30.018Z,1.30
2017-12-13T08:49:58.373Z,1.57
2017-12-13T08:52:27.771Z,1.40
2017-12-13T08:54:56.913Z,0.87
2017-12-13T08:57:24.975Z,1.23
2017-12-13T08:59:53.391Z,0.70
2017-12-13T09:02:21.765Z,1.30
2017-12-13T09:04:50.124Z,1.03
2017-12-13T09:07:18.515Z,1.33
2017-12-13T09:09:46.887Z,1.40
2017-12-13T09:12:14.931Z,1.80
2017-12-13T09:14:43.319Z,0.40
2017-12-13T09:17:12.121Z,1.27
2017-12-13T09:19:40.486Z,1.37
2017-12-13T09:22:08.860Z,1.00
2017-12-13T09:24:37.219Z,1.00
2017-12-13T09:27:06.748Z,1.20
2017-12-13T09:29:35.900Z,1.03
2017-12-13T09:32:04.709Z,0.87
2017-12-13T09:34:33.076Z,0.70
2017-12-13T09:37:02.258Z,1.07
2017-12-13T09:39:30.291Z,0.80
2017-12-13T09:41:58.672Z,0.50
2017-12-13T09:44:27.236Z,0.50
2017-12-13T09:46:55.596Z,0.77
2017-12-13T09:49:23.968Z,0.60
2017-12-13T09:51:52.779Z,0.40
2017-12-13T09:54:21.146Z,0.67
2017-12-13T09:56:49.519Z,0.67
2017-12-13T09:59:17.916Z,0.57
2017-12-13T10:01:46.367Z,0.47
2017-12-13T10:04:15.519Z,0.30
2017-12-13T10:06:44.721Z,0.37
2017-12-13T10:09:13.084Z,0.50
2017-12-13T10:11:41.458Z,0.40
2017-12-13T10:14:09.649Z,0.43
2017-12-13T10:16:38.060Z,0.33
2017-12-13T10:19:07.201Z,0.30
2017-12-13T10:21:35.287Z,0.30
2017-12-13T10:24:03.671Z,0.20
2017-12-13T10:26:32.048Z,0.40
2017-12-13T10:29:00.447Z,0.20
2017-12-13T10:31:28.496Z,0.33
2017-12-13T10:33:56.856Z,0.30
2017-12-13T10:36:25.249Z,0.30
2017-12-13T10:38:53.620Z,0.30
2017-12-13T10:41:21.988Z,0.30
2017-12-13T10:43:50.382Z,0.70
2017-12-13T10:46:18.790Z,0.30
2017-12-13T10:48:47.144Z,0.30
2017-12-13T10:51:15.543Z,0.37
2017-12-13T10:53:43.264Z,0.30
2017-12-13T10:56:11.630Z,0.30
2017-12-13T10:58:40.087Z,0.30
2017-12-13T11:01:08.876Z,0.30
2017-12-13T11:03:37.666Z,0.30
2017-12-13T11:06:06.847Z,0.30
2017-12-13T11:08:35.979Z,0.30
2017-12-13T11:11:04.342Z,0.30
2017-12-13T11:13:32.776Z,0.27
2017-12-13T11:16:01.141Z,0.30
2017-12-13T11:18:29.500Z,0.30
2017-12-13T11:20:57.878Z,0.40
2017-12-13T11:23:26.251Z,0.20
2017-12-13T11:25:54.616Z,0.30
2017-12-13T11:28:23.016Z,0.30
2017-12-13T11:30:50.915Z,0.30
2017-12-13T11:33:20.058Z,0.30
2017-12-13T11:35:48.447Z,0.30
2017-12-13T11:38:16.799Z,0.30
2017-12-13T11:40:44.832Z,0.30
2017-12-13T11:43:13.212Z,0.40
2017-12-13T11:45:41.578Z,0.23
2017-12-13T11:48:09.939Z,0.30
2017-12-13T11:50:38.044Z,0.30
2017-12-13T11:53:06.597Z,0.20
2017-12-13T11:55:35.008Z,0.20
2017-12-13T11:58:03.396Z,0.30
2017-12-13T12:00:31.443Z,0.30
2017-12-13T12:02:59.808Z,0.30
2017-12-13T12:05:28.196Z,0.30
2017-12-13T12:07:56.568Z,0.27
2017-12-13T12:10:24.977Z,0.30
2017-12-13T12:12:53.360Z,0.40
2017-12-13T12:15:22.215Z,0.30
2017-12-13T12:17:50.576Z,0.30
2017-12-13T12:20:18.964Z,0.30
2017-12-13T12:22:48.266Z,0.60
2017-12-13T12:25:16.622Z,0.30
2017-12-13T12:27:45.032Z,0.50
2017-12-13T12:30:13.396Z,0.30
2017-12-13T12:32:41.755Z,0.33
2017-12-13T12:35:10.171Z,0.30
2017-12-13T12:37:39.296Z,0.30
2017-12-13T12:40:08.418Z,0.30
2017-12-13T12:42:36.855Z,0.30
2017-12-13T12:45:05.216Z,0.40
2017-12-13T12:47:33.620Z,0.30
2017-12-13T12:50:03.350Z,0.20
2017-12-13T12:52:31.714Z,0.20
2017-12-13T12:55:00.852Z,0.30
2017-12-13T12:57:29.268Z,0.30
2017-12-13T12:59:57.623Z,0.30
2017-12-13T13:02:25.985Z,0.30
2017-12-13T13:04:54.360Z,0.20
2017-12-13T13:07:22.720Z,0.40
2017-12-13T13:09:51.712Z,0.20
2017-12-13T13:12:20.088Z,0.20
2017-12-13T13:14:48.447Z,0.30
2017-12-13T13:17:16.921Z,0.30
2017-12-13T13:19:44.644Z,0.40
2017-12-13T13:22:12.678Z,0.40
2017-12-13T13:24:41.049Z,0.30
2017-12-13T13:27:10.200Z,0.30
2017-12-13T13:29:38.566Z,0.40
2017-12-13T13:32:06.980Z,0.23
2017-12-13T13:34:35.582Z,0.40
2017-12-13T13:37:03.944Z,0.30
2017-12-13T13:39:32.308Z,0.30
2017-12-13T13:42:00.691Z,0.30
2017-12-13T13:44:29.052Z,0.20
2017-12-13T13:46:57.415Z,0.20
2017-12-13T13:49:26.608Z,0.30
2017-12-13T13:51:54.964Z,0.20
2017-12-13T13:54:23.369Z,0.30
2017-12-13T13:56:51.756Z,0.30
2017-12-13T13:59:20.121Z,0.20
2017-12-13T14:01:48.493Z,0.60
2017-12-13T14:04:16.878Z,0.77
2017-12-13T14:06:45.236Z,0.50
2017-12-13T14:09:13.614Z,0.30
2017-12-13T14:11:42.100Z,0.30
2017-12-13T14:14:11.671Z,0.60
2017-12-13T14:16:40.466Z,0.63
2017-12-13T14:19:09.629Z,0.57
2017-12-13T14:21:38.004Z,0.63
2017-12-13T14:24:06.372Z,0.60
2017-12-13T14:26:34.761Z,0.53
2017-12-13T14:29:03.125Z,0.30
2017-12-13T14:31:31.506Z,0.40
2017-12-13T14:33:59.945Z,0.50
2017-12-13T14:36:29.325Z,0.40
2017-12-13T14:38:58.561Z,0.40
2017-12-13T14:41:26.953Z,0.30
2017-12-13T14:43:55.308Z,0.30
2017-12-13T14:46:23.668Z,0.50
2017-12-13T14:48:52.824Z,0.40
2017-12-13T14:51:21.184Z,0.30
2017-12-13T14:53:49.612Z,0.80
2017-12-13T14:56:18.760Z,0.40
2017-12-13T14:58:47.320Z,0.27
2017-12-13T15:01:15.680Z,0.30
2017-12-13T15:03:44.832Z,0.30
2017-12-13T15:06:13.192Z,0.40
2017-12-13T15:08:41.550Z,0.30
2017-12-13T15:11:09.941Z,0.40
2017-12-13T15:13:38.288Z,0.50
2017-12-13T15:16:07.415Z,0.30
2017-12-13T15:18:35.809Z,0.20
2017-12-13T15:21:03.908Z,0.83
2017-12-13T15:23:33.054Z,0.40
2017-12-13T15:26:01.451Z,0.40
2017-12-13T15:28:30.982Z,0.30
2017-12-13T15:30:59.348Z,0.30
2017-12-13T15:33:28.519Z,0.50
2017-12-13T15:35:56.880Z,0.43
2017-12-13T15:38:25.250Z,0.37
2017-12-13T15:40:53.444Z,0.23
2017-12-13T15:43:23.372Z,0.37
2017-12-13T15:45:53.717Z,0.30
2017-12-13T15:48:24.872Z,0.40
2017-12-13T15:50:54.804Z,0.37
2017-12-13T15:53:23.220Z,0.40
2017-12-13T15:55:52.376Z,0.60
2017-12-13T15:58:21.528Z,0.53
2017-12-13T16:00:49.583Z,0.40
2017-12-13T16:03:17.963Z,0.30
2017-12-13T16:05:46.348Z,0.60
2017-12-13T16:08:14.717Z,0.40
2017-12-13T16:10:43.113Z,0.50
2017-12-13T16:13:11.497Z,0.30
2017-12-13T16:15:39.865Z,0.50
2017-12-13T16:18:08.216Z,0.40
2017-12-13T16:20:36.613Z,0.20
2017-12-13T16:23:04.982Z,0.47
2017-12-13T16:25:33.371Z,0.40
2017-12-13T16:28:01.756Z,0.30
2017-12-13T16:30:30.124Z,0.30
2017-12-13T16:32:58.518Z,0.37
2017-12-13T16:35:26.957Z,0.30
2017-12-13T16:37:54.995Z,0.60
2017-12-13T16:40:23.358Z,0.40
2017-12-13T16:42:51.744Z,0.40
2017-12-13T16:45:20.110Z,0.37
2017-12-13T16:47:48.465Z,0.30
2017-12-13T16:50:16.526Z,0.40
2017-12-13T16:52:44.884Z,0.60
2017-12-13T16:55:13.240Z,0.60
2017-12-13T16:57:42.776Z,0.70
2017-12-13T17:00:11.975Z,0.50
2017-12-13T17:02:40.374Z,0.20
2017-12-13T17:05:09.387Z,0.30
2017-12-13T17:07:37.762Z,0.50
2017-12-13T17:10:06.117Z,0.30
2017-12-13T17:12:34.180Z,0.40
2017-12-13T17:15:02.552Z,0.43
2017-12-13T17:17:30.915Z,0.27
2017-12-13T17:19:59.314Z,0.40
2017-12-13T17:22:28.817Z,0.30
2017-12-13T17:24:58.891Z,0.63
2017-12-13T17:27:27.258Z,0.50
2017-12-13T17:29:55.637Z,0.40
2017-12-13T17:32:24.066Z,0.67
2017-12-13T17:34:52.459Z,0.30
2017-12-13T17:37:23.251Z,0.40
2017-12-13T17:39:52.405Z,2.50
2017-12-13T17:42:20.801Z,0.30
2017-12-13T17:44:49.241Z,0.50
2017-12-13T17:47:17.625Z,0.30
2017-12-13T17:49:46.011Z,0.60
2017-12-13T17:52:14.474Z,0.43
2017-12-13T17:54:42.845Z,0.90
2017-12-13T17:57:11.270Z,0.63
2017-12-13T17:59:39.694Z,0.30
2017-12-13T18:02:08.309Z,0.47
2017-12-13T18:04:36.701Z,0.50
2017-12-13T18:07:04.844Z,0.70
2017-12-13T18:09:33.214Z,0.67
2017-12-13T18:12:02.357Z,0.90
2017-12-13T18:14:30.805Z,1.40
2017-12-13T18:16:58.832Z,0.50
2017-12-13T18:19:28.005Z,0.90
2017-12-13T18:21:56.580Z,0.90
2017-12-13T18:24:24.944Z,0.70
2017-12-13T18:26:53.310Z,1.40
2017-12-13T18:29:21.895Z,1.50
2017-12-13T18:31:50.248Z,1.00
2017-12-13T18:34:18.642Z,0.60
2017-12-13T18:36:47.054Z,0.70
2017-12-13T18:39:15.465Z,0.93
2017-12-13T18:41:43.861Z,0.57
2017-12-13T18:44:12.283Z,0.87
2017-12-13T18:46:44.198Z,0.43
2017-12-13T18:49:12.975Z,0.60
2017-12-13T18:51:42.109Z,0.50
2017-12-13T18:54:10.499Z,0.60
2017-12-13T18:56:38.887Z,0.40
2017-12-13T18:59:07.253Z,0.50
2017-12-13T19:01:35.170Z,0.60
2017-12-13T19:04:04.741Z,0.50
2017-12-13T19:06:33.905Z,0.53
2017-12-13T19:09:02.281Z,0.90
2017-12-13T19:11:30.802Z,0.40
2017-12-13T19:13:59.197Z,0.50
2017-12-13T19:16:27.710Z,0.67
2017-12-13T19:18:56.138Z,0.50
2017-12-13T19:21:24.514Z,0.60
2017-12-13T19:23:52.896Z,0.27
2017-12-13T19:26:21.322Z,0.50
2017-12-13T19:28:49.683Z,0.67
2017-12-13T19:31:18.837Z,0.47
2017-12-13T19:33:47.264Z,0.60
2017-12-13T19:36:16.702Z,0.20
2017-12-13T19:38:46.184Z,0.33
2017-12-13T19:41:15.794Z,0.50
2017-12-13T19:43:44.248Z,0.50
2017-12-13T19:46:13.565Z,0.67
2017-12-13T19:48:41.968Z,0.60
2017-12-13T19:51:11.254Z,0.70
2017-12-13T19:53:42.169Z,0.30
2017-12-13T19:56:10.892Z,0.40
2017-12-13T19:58:39.334Z,0.30
2017-12-13T20:01:07.762Z,0.57
2017-12-13T20:03:36.144Z,0.50
2017-12-13T20:06:04.539Z,0.47
2017-12-13T20:08:32.710Z,0.40
2017-12-13T20:11:01.605Z,0.20
2017-12-13T20:13:31.543Z,0.40
2017-12-13T20:15:59.957Z,0.30
2017-12-13T20:18:28.649Z,0.30
2017-12-13T20:20:58.031Z,0.20
2017-12-13T20:23:26.587Z,0.33
2017-12-13T20:25:55.792Z,0.17
2017-12-13T20:28:25.026Z,0.30
2017-12-13T20:30:53.542Z,0.50
2017-12-13T20:33:21.930Z,0.30
2017-12-13T20:35:50.411Z,0.20
2017-12-13T20:38:18.837Z,0.73
2017-12-13T20:40:47.195Z,0.20
2017-12-13T20:43:15.561Z,0.20
2017-12-13T20:45:44.955Z,0.20
2017-12-13T20:48:13.361Z,0.30
2017-12-13T20:50:42.145Z,0.33
2017-12-13T20:53:11.488Z,0.30
2017-12-13T20:55:39.930Z,1.40
2017-12-13T20:58:08.346Z,0.40
2017-12-13T21:00:36.871Z,0.43
2017-12-13T21:03:05.317Z,0.50
2017-12-13T21:05:33.695Z,0.40
2017-12-13T21:08:02.102Z,0.30
2017-12-13T21:10:30.480Z,0.63
2017-12-13T21:12:58.877Z,0.60
2017-12-13T21:15:27.431Z,0.57
2017-12-13T21:17:56.577Z,0.70
2017-12-13T21:20:25.121Z,0.30
2017-12-13T21:22:54.271Z,0.80
2017-12-13T21:25:22.698Z,0.40
2017-12-13T21:27:51.842Z,0.53
2017-12-13T21:30:20.240Z,0.40
2017-12-13T21:32:48.663Z,0.80
2017-12-13T21:35:17.820Z,0.70
2017-12-13T21:37:46.991Z,0.70
2017-12-13T21:40:15.380Z,0.60
2017-12-13T21:42:43.828Z,0.70
2017-12-13T21:45:13.476Z,0.60
2017-12-13T21:47:41.854Z,1.27
2017-12-13T21:50:10.244Z,0.67
2017-12-13T21:52:38.617Z,0.80
2017-12-13T21:55:06.996Z,0.77
2017-12-13T21:57:37.087Z,1.13
2017-12-13T22:00:05.452Z,0.80
2017-12-13T22:02:33.810Z,0.77
2017-12-13T22:05:02.973Z,1.00
2017-12-13T22:07:31.333Z,0.83
2017-12-13T22:09:59.695Z,1.30
2017-12-13T22:12:28.077Z,1.37
2017-12-13T22:14:56.478Z,0.90
2017-12-13T22:17:24.885Z,1.23
2017-12-13T22:19:54.045Z,0.93
2017-12-13T22:22:22.423Z,0.93
2017-12-13T22:24:50.787Z,0.97
2017-12-13T22:27:19.187Z,0.80
2017-12-13T22:29:47.553Z,1.10
2017-12-13T22:32:15.924Z,0.83
2017-12-13T22:34:44.323Z,0.90
2017-12-13T22:37:12.709Z,1.57
2017-12-13T22:39:41.067Z,2.60
2017-12-13T22:42:09.453Z,1.90
2017-12-13T22:44:37.808Z,1.70
2017-12-13T22:47:06.167Z,1.60
2017-12-13T22:49:34.662Z,0.80
2017-12-13T22:52:03.039Z,1.30
2017-12-13T22:54:31.429Z,1.40
2017-12-13T22:56:59.489Z,2.27
2017-12-13T22:59:27.872Z,2.13
2017-12-13T23:01:56.249Z,2.00
2017-12-13T23:04:24.320Z,1.43
2017-12-13T23:06:52.753Z,1.73
2017-12-13T23:09:21.895Z,1.40
2017-12-13T23:11:50.274Z,1.50
2017-12-13T23:14:18.643Z,1.60
2017-12-13T23:16:47.052Z,1.63
2017-12-13T23:19:15.112Z,2.40
2017-12-13T23:21:43.483Z,2.00
2017-12-13T23:24:11.840Z,1.10
2017-12-13T23:26:40.217Z,1.50
2017-12-13T23:29:08.015Z,2.40
2017-12-13T23:31:36.364Z,2.00
2017-12-13T23:34:04.753Z,1.47
2017-12-13T23:36:32.791Z,1.73
2017-12-13T23:39:02.395Z,1.20
2017-12-13T23:41:31.635Z,1.90
2017-12-13T23:44:00.048Z,1.77
2017-12-13T23:46:28.463Z,1.43
2017-12-13T23:48:57.609Z,1.57
2017-12-13T23:51:25.638Z,1.60
2017-12-13T23:53:53.999Z,2.07
2017-12-13T23:56:23.163Z,1.60
2017-12-13T23:58:51.534Z,2.50
